sensor_id;sensor_type;location;lat;lon;timestamp;P1;durP1;ratioP1;P2;durP2;ratioP2
71955;SDS011;59829;50.562;6.258;2022-12-07T00:09:50;5.50;;;2.85;;
71955;SDS011;59829;50.562;6.258;2022-12-07T00:19:51;4.85;;;2.33;;
71955;SDS011;59829;50.562;6.258;2022-12-07T00:29:51;4.65;;;2.30;;
71955;SDS011;59829;50.562;6.258;2022-12-07T00:39:51;2.67;;;1.25;;
71955;SDS011;59829;50.562;6.258;2022-12-07T00:59:54;1.10;;;0.45;;
71955;SDS011;59829;50.562;6.258;2022-12-07T01:09:57;1.20;;;0.57;;
71955;SDS011;59829;50.562;6.258;2022-12-07T01:19:57;0.82;;;0.50;;
71955;SDS011;59829;50.562;6.258;2022-12-07T01:29:58;0.95;;;0.60;;
71955;SDS011;59829;50.562;6.258;2022-12-07T01:39:58;2.65;;;1.13;;
71955;SDS011;59829;50.562;6.258;2022-12-07T01:49:58;2.08;;;1.15;;
71955;SDS011;59829;50.562;6.258;2022-12-07T01:59:59;3.03;;;1.13;;
71955;SDS011;59829;50.562;6.258;2022-12-07T02:10:19;2.75;;;1.25;;
71955;SDS011;59829;50.562;6.258;2022-12-07T02:20:24;2.47;;;1.13;;
71955;SDS011;59829;50.562;6.258;2022-12-07T02:30:31;1.88;;;1.08;;
71955;SDS011;59829;50.562;6.258;2022-12-07T02:40:41;2.72;;;1.30;;
71955;SDS011;59829;50.562;6.258;2022-12-07T02:50:51;1.92;;;1.05;;
71955;SDS011;59829;50.562;6.258;2022-12-07T03:11:37;4.65;;;2.20;;
71955;SDS011;59829;50.562;6.258;2022-12-07T03:22:03;3.97;;;1.77;;
71955;SDS011;59829;50.562;6.258;2022-12-07T03:32:13;6.13;;;2.10;;
71955;SDS011;59829;50.562;6.258;2022-12-07T03:42:20;5.83;;;1.90;;
71955;SDS011;59829;50.562;6.258;2022-12-07T04:02:33;4.65;;;2.30;;
71955;SDS011;59829;50.562;6.258;2022-12-07T04:12:34;2.83;;;1.60;;
71955;SDS011;59829;50.562;6.258;2022-12-07T04:22:34;2.65;;;1.35;;
71955;SDS011;59829;50.562;6.258;2022-12-07T04:32:34;2.83;;;1.52;;
71955;SDS011;59829;50.562;6.258;2022-12-07T04:42:35;3.65;;;1.92;;
71955;SDS011;59829;50.562;6.258;2022-12-07T04:52:35;3.88;;;2.00;;
71955;SDS011;59829;50.562;6.258;2022-12-07T05:02:35;3.90;;;1.42;;
71955;SDS011;59829;50.562;6.258;2022-12-07T05:12:35;2.67;;;1.20;;
71955;SDS011;59829;50.562;6.258;2022-12-07T05:22:36;1.83;;;0.82;;
71955;SDS011;59829;50.562;6.258;2022-12-07T05:32:36;6.63;;;2.20;;
71955;SDS011;59829;50.562;6.258;2022-12-07T05:42:36;5.00;;;2.20;;
71955;SDS011;59829;50.562;6.258;2022-12-07T05:52:37;5.00;;;2.10;;
71955;SDS011;59829;50.562;6.258;2022-12-07T06:02:37;7.10;;;2.55;;
71955;SDS011;59829;50.562;6.258;2022-12-07T06:12:37;5.03;;;2.50;;
71955;SDS011;59829;50.562;6.258;2022-12-07T06:22:39;3.95;;;1.92;;
71955;SDS011;59829;50.562;6.258;2022-12-07T06:32:39;2.95;;;1.42;;
71955;SDS011;59829;50.562;6.258;2022-12-07T06:42:40;2.22;;;1.13;;
71955;SDS011;59829;50.562;6.258;2022-12-07T06:52:40;2.90;;;1.38;;
71955;SDS011;59829;50.562;6.258;2022-12-07T07:02:40;3.67;;;1.40;;
71955;SDS011;59829;50.562;6.258;2022-12-07T07:12:40;1.95;;;0.90;;
71955;SDS011;59829;50.562;6.258;2022-12-07T07:22:41;5.25;;;1.98;;
71955;SDS011;59829;50.562;6.258;2022-12-07T07:32:41;3.45;;;1.58;;
71955;SDS011;59829;50.562;6.258;2022-12-07T07:42:41;4.85;;;1.80;;
71955;SDS011;59829;50.562;6.258;2022-12-07T07:52:42;3.30;;;1.55;;
71955;SDS011;59829;50.562;6.258;2022-12-07T08:02:42;3.03;;;1.20;;
71955;SDS011;59829;50.562;6.258;2022-12-07T08:12:43;3.38;;;1.38;;
71955;SDS011;59829;50.562;6.258;2022-12-07T08:23:02;2.85;;;1.48;;
71955;SDS011;59829;50.562;6.258;2022-12-07T08:33:03;1.17;;;0.70;;
71955;SDS011;59829;50.562;6.258;2022-12-07T08:43:03;1.23;;;0.70;;
71955;SDS011;59829;50.562;6.258;2022-12-07T08:53:04;3.35;;;1.40;;
71955;SDS011;59829;50.562;6.258;2022-12-07T09:03:06;3.07;;;1.37;;
71955;SDS011;59829;50.562;6.258;2022-12-07T09:13:06;2.20;;;1.08;;
71955;SDS011;59829;50.562;6.258;2022-12-07T09:23:06;4.40;;;2.00;;
71955;SDS011;59829;50.562;6.258;2022-12-07T09:33:07;4.53;;;1.77;;
71955;SDS011;59829;50.562;6.258;2022-12-07T09:43:11;3.55;;;1.50;;
71955;SDS011;59829;50.562;6.258;2022-12-07T09:53:18;4.28;;;1.70;;
71955;SDS011;59829;50.562;6.258;2022-12-07T10:03:26;4.07;;;2.00;;
71955;SDS011;59829;50.562;6.258;2022-12-07T10:13:35;3.50;;;1.67;;
71955;SDS011;59829;50.562;6.258;2022-12-07T10:23:37;4.18;;;1.92;;
71955;SDS011;59829;50.562;6.258;2022-12-07T10:33:49;5.65;;;2.33;;
71955;SDS011;59829;50.562;6.258;2022-12-07T10:43:55;6.40;;;2.60;;
71955;SDS011;59829;50.562;6.258;2022-12-07T10:54:04;4.27;;;1.83;;
71955;SDS011;59829;50.562;6.258;2022-12-07T11:14:44;4.30;;;1.63;;
71955;SDS011;59829;50.562;6.258;2022-12-07T11:35:26;2.25;;;1.30;;
71955;SDS011;59829;50.562;6.258;2022-12-07T11:45:37;2.92;;;1.30;;
71955;SDS011;59829;50.562;6.258;2022-12-07T12:06:08;3.00;;;1.55;;
71955;SDS011;59829;50.562;6.258;2022-12-07T12:26:31;3.88;;;2.25;;
71955;SDS011;59829;50.562;6.258;2022-12-07T12:57:05;3.00;;;1.65;;
71955;SDS011;59829;50.562;6.258;2022-12-07T13:17:57;3.30;;;1.50;;
71955;SDS011;59829;50.562;6.258;2022-12-07T13:28:11;2.33;;;1.20;;
71955;SDS011;59829;50.562;6.258;2022-12-07T13:38:34;1.20;;;0.80;;
71955;SDS011;59829;50.562;6.258;2022-12-07T13:48:42;1.20;;;0.65;;
71955;SDS011;59829;50.562;6.258;2022-12-07T13:58:44;1.85;;;0.80;;
71955;SDS011;59829;50.562;6.258;2022-12-07T14:08:45;1.20;;;0.77;;
71955;SDS011;59829;50.562;6.258;2022-12-07T14:18:46;2.00;;;1.15;;
71955;SDS011;59829;50.562;6.258;2022-12-07T14:28:47;2.67;;;1.40;;
71955;SDS011;59829;50.562;6.258;2022-12-07T14:38:47;0.70;;;0.40;;
71955;SDS011;59829;50.562;6.258;2022-12-07T14:48:49;0.60;;;0.30;;
71955;SDS011;59829;50.562;6.258;2022-12-07T14:58:49;0.50;;;0.20;;
71955;SDS011;59829;50.562;6.258;2022-12-07T15:08:50;0.50;;;0.20;;
71955;SDS011;59829;50.562;6.258;2022-12-07T15:18:50;0.20;;;0.10;;
71955;SDS011;59829;50.562;6.258;2022-12-07T15:28:52;0.52;;;0.20;;
71955;SDS011;59829;50.562;6.258;2022-12-07T15:38:53;0.30;;;0.10;;
71955;SDS011;59829;50.562;6.258;2022-12-07T15:48:54;0.50;;;0.30;;
71955;SDS011;59829;50.562;6.258;2022-12-07T15:58:55;3.65;;;1.75;;
71955;SDS011;59829;50.562;6.258;2022-12-07T16:08:56;1.42;;;0.70;;
71955;SDS011;59829;50.562;6.258;2022-12-07T16:18:56;0.68;;;0.38;;
71955;SDS011;59829;50.562;6.258;2022-12-07T16:28:57;0.67;;;0.20;;
71955;SDS011;59829;50.562;6.258;2022-12-07T16:38:58;0.73;;;0.40;;
71955;SDS011;59829;50.562;6.258;2022-12-07T16:48:59;0.80;;;0.50;;
71955;SDS011;59829;50.562;6.258;2022-12-07T16:58:59;1.10;;;0.60;;
71955;SDS011;59829;50.562;6.258;2022-12-07T17:09:01;2.58;;;1.08;;
71955;SDS011;59829;50.562;6.258;2022-12-07T17:19:05;3.42;;;0.82;;
71955;SDS011;59829;50.562;6.258;2022-12-07T17:29:07;3.13;;;1.60;;
71955;SDS011;59829;50.562;6.258;2022-12-07T17:39:09;3.88;;;1.60;;
71955;SDS011;59829;50.562;6.258;2022-12-07T17:49:10;4.20;;;2.30;;
71955;SDS011;59829;50.562;6.258;2022-12-07T17:59:11;2.90;;;1.70;;
71955;SDS011;59829;50.562;6.258;2022-12-07T18:09:11;4.43;;;1.63;;
71955;SDS011;59829;50.562;6.258;2022-12-07T18:19:12;4.30;;;1.73;;
71955;SDS011;59829;50.562;6.258;2022-12-07T18:29:14;3.80;;;1.90;;
71955;SDS011;59829;50.562;6.258;2022-12-07T18:49:18;4.32;;;2.00;;
71955;SDS011;59829;50.562;6.258;2022-12-07T18:59:19;2.55;;;1.40;;
71955;SDS011;59829;50.562;6.258;2022-12-07T19:09:37;2.95;;;1.50;;
71955;SDS011;59829;50.562;6.258;2022-12-07T19:19:44;1.73;;;0.75;;
71955;SDS011;59829;50.562;6.258;2022-12-07T19:29:46;1.90;;;0.80;;
71955;SDS011;59829;50.562;6.258;2022-12-07T19:39:47;1.55;;;0.70;;
71955;SDS011;59829;50.562;6.258;2022-12-07T19:49:50;2.13;;;1.30;;
71955;SDS011;59829;50.562;6.258;2022-12-07T19:59:50;2.00;;;0.85;;
71955;SDS011;59829;50.562;6.258;2022-12-07T20:09:51;2.10;;;1.15;;
71955;SDS011;59829;50.562;6.258;2022-12-07T20:19:51;1.92;;;1.10;;
71955;SDS011;59829;50.562;6.258;2022-12-07T20:29:51;1.35;;;0.80;;
71955;SDS011;59829;50.562;6.258;2022-12-07T20:39:52;2.47;;;1.30;;
71955;SDS011;59829;50.562;6.258;2022-12-07T20:49:52;2.10;;;0.90;;
71955;SDS011;59829;50.562;6.258;2022-12-07T20:59:52;2.25;;;0.80;;
71955;SDS011;59829;50.562;6.258;2022-12-07T21:09:52;2.00;;;1.20;;
71955;SDS011;59829;50.562;6.258;2022-12-07T21:19:53;3.55;;;1.27;;
71955;SDS011;59829;50.562;6.258;2022-12-07T21:29:53;2.40;;;1.25;;
71955;SDS011;59829;50.562;6.258;2022-12-07T21:39:53;2.78;;;1.15;;
71955;SDS011;59829;50.562;6.258;2022-12-07T21:49:54;2.00;;;1.15;;
71955;SDS011;59829;50.562;6.258;2022-12-07T21:59:55;3.53;;;1.30;;
71955;SDS011;59829;50.562;6.258;2022-12-07T22:09:55;2.50;;;1.58;;
71955;SDS011;59829;50.562;6.258;2022-12-07T22:19:56;1.77;;;1.02;;
71955;SDS011;59829;50.562;6.258;2022-12-07T22:29:56;2.70;;;1.42;;
71955;SDS011;59829;50.562;6.258;2022-12-07T22:39:57;1.85;;;1.05;;
71955;SDS011;59829;50.562;6.258;2022-12-07T22:49:57;3.20;;;1.57;;
71955;SDS011;59829;50.562;6.258;2022-12-07T22:59:59;3.22;;;1.70;;
71955;SDS011;59829;50.562;6.258;2022-12-07T23:09:59;2.70;;;1.50;;
71955;SDS011;59829;50.562;6.258;2022-12-07T23:19:59;3.03;;;1.45;;
71955;SDS011;59829;50.562;6.258;2022-12-07T23:30:00;2.92;;;1.23;;
71955;SDS011;59829;50.562;6.258;2022-12-07T23:40:00;2.27;;;1.03;;
71955;SDS011;59829;50.562;6.258;2022-12-07T23:50:01;3.38;;;1.83;;
